Time;durP1;ratioP1;P1;durP2;ratioP2;P2;SDS_P1;SDS_P2;PMS_P1;PMS_P2;Temp;Humidity;BMP_temperature;BMP_pressure;BME280_temperature;BME280_humidity;BME280_pressure;Samples;Min_cycle;Max_cycle;Signal;HPM_P1;HPM_P2
2022/07/25 00:02:23;;;;;;;5.55;3.50;;;;;;;28.47;52.67;100087.78;5010745;28;20030;-79
2022/07/25 00:04:49;;;;;;;8.45;3.45;;;;;;;28.45;53.15;100105.59;5009623;28;20030;-80
2022/07/25 00:07:15;;;;;;;9.95;3.83;;;;;;;27.94;55.25;100059.94;5010360;28;20022;-80
2022/07/25 00:09:41;;;;;;;9.48;3.38;;;;;;;27.95;55.38;100048.38;5010160;28;20121;-81
2022/07/25 00:12:06;;;;;;;7.05;3.88;;;;;;;28.17;56.65;100090.84;5010118;28;20026;-80
2022/07/25 00:14:32;;;;;;;9.88;3.83;;;;;;;28.24;56.90;100131.28;5009778;28;20586;-79
2022/07/25 00:16:57;;;;;;;12.60;3.70;;;;;;;27.89;58.81;100115.84;5009918;28;20026;-78
2022/07/25 00:19:23;;;;;;;8.07;3.90;;;;;;;27.65;56.07;100123.00;5009982;28;20063;-79
2022/07/25 00:21:49;;;;;;;9.05;4.30;;;;;;;27.32;56.48;100111.91;5010178;28;20022;-78
2022/07/25 00:24:14;;;;;;;7.18;4.18;;;;;;;27.27;57.56;100099.69;5029860;28;20059;-78
2022/07/25 00:26:40;;;;;;;8.88;3.92;;;;;;;27.38;58.62;100104.56;5029795;28;20403;-78
2022/07/25 00:29:05;;;;;;;13.15;4.10;;;;;;;27.08;59.42;100064.22;5029703;28;20021;-78
2022/07/25 00:31:31;;;;;;;11.15;4.10;;;;;;;27.35;60.42;100103.81;5029331;28;20038;-79
2022/07/25 00:33:56;;;;;;;7.88;3.53;;;;;;;26.93;60.48;100049.75;5029330;28;20101;-78
2022/07/25 00:36:22;;;;;;;9.57;3.85;;;;;;;27.29;62.15;100111.09;5029629;28;20025;-78
2022/07/25 00:38:47;;;;;;;10.13;3.92;;;;;;;27.27;62.45;100091.72;5029430;28;20548;-79
2022/07/25 00:41:13;;;;;;;9.57;4.15;;;;;;;27.41;59.84;100108.94;5029516;28;20545;-79
2022/07/25 00:43:43;;;;;;;10.70;4.80;;;;;;;27.31;58.26;100113.69;5029905;28;20026;-80
2022/07/25 00:46:11;;;;;;;14.15;4.50;;;;;;;27.04;57.14;100099.69;5032609;28;20025;-78
2022/07/25 00:48:37;;;;;;;15.02;5.47;;;;;;;27.06;55.38;100121.69;5033265;28;20104;-80
2022/07/25 00:51:03;;;;;;;10.73;5.10;;;;;;;26.68;55.17;100061.25;5033108;28;20148;-79
2022/07/25 00:53:28;;;;;;;11.77;5.97;;;;;;;26.93;55.20;100103.59;5033306;28;20523;-79
2022/07/25 00:55:54;;;;;;;15.27;5.70;;;;;;;26.89;54.91;100117.91;5015713;28;20030;-79
2022/07/25 00:58:20;;;;;;;9.23;5.93;;;;;;;26.52;53.87;100063.59;5033241;28;20479;-79
2022/07/25 01:00:46;;;;;;;10.00;6.32;;;;;;;26.89;53.15;100115.25;5033515;28;20063;-80
2022/07/25 01:03:31;;;;;;;10.50;6.68;;;;;;;26.92;53.77;100123.06;4990994;28;20601;-80
2022/07/25 01:05:57;;;;;;;13.10;6.68;;;;;;;26.70;54.61;100107.06;4991113;28;20047;-80
2022/07/25 01:08:23;;;;;;;11.20;6.82;;;;;;;26.59;54.66;100125.09;4991081;28;20053;-79
2022/07/25 01:10:49;;;;;;;9.90;6.05;;;;;;;26.35;55.64;100146.22;4990976;28;20030;-79
2022/07/25 01:13:14;;;;;;;9.80;6.13;;;;;;;25.70;57.78;100145.63;4991061;28;20035;-80
2022/07/25 01:15:41;;;;;;;11.27;6.63;;;;;;;25.80;57.93;100162.06;4990840;28;20034;-80
2022/07/25 01:18:07;;;;;;;11.48;6.70;;;;;;;25.62;58.74;100148.53;4990889;28;20034;-79
2022/07/25 01:20:34;;;;;;;12.20;7.40;;;;;;;25.17;58.36;100051.19;4991148;28;20031;-79
2022/07/25 01:22:59;;;;;;;13.07;7.35;;;;;;;26.02;58.47;100156.09;4990476;28;20133;-79
2022/07/25 01:25:26;;;;;;;12.93;7.35;;;;;;;26.21;58.61;100159.06;4990802;28;20556;-79
2022/07/25 01:27:53;;;;;;;14.40;7.40;;;;;;;26.30;58.58;100167.53;4990890;28;20121;-80
2022/07/25 01:30:20;;;;;;;18.42;7.53;;;;;;;26.30;58.36;100171.97;4990254;28;20050;-78
2022/07/25 01:32:46;;;;;;;16.67;7.30;;;;;;;26.10;58.12;100112.63;4990790;28;20121;-79
2022/07/25 01:35:12;;;;;;;16.08;7.63;;;;;;;26.41;58.85;100167.19;5022951;28;20105;-78
2022/07/25 01:37:38;;;;;;;14.90;6.85;;;;;;;26.40;58.62;100156.66;5032418;28;20040;-79
2022/07/25 01:40:05;;;;;;;18.05;7.22;;;;;;;26.37;58.56;100151.44;5032490;28;20017;-77
2022/07/25 01:42:31;;;;;;;12.52;6.93;;;;;;;26.12;58.96;100110.81;5032195;28;20033;-78
2022/07/25 01:44:57;;;;;;;15.60;7.47;;;;;;;26.26;59.02;100142.09;5031965;28;20025;-79
2022/07/25 01:47:23;;;;;;;19.80;7.57;;;;;;;26.25;59.41;100174.75;5014444;28;20407;-79
2022/07/25 01:49:48;;;;;;;16.58;7.63;;;;;;;26.25;59.28;100176.56;5032029;28;20030;-79
2022/07/25 01:52:14;;;;;;;15.15;7.22;;;;;;;26.29;58.88;100187.00;5032470;28;20025;-80
2022/07/25 01:54:40;;;;;;;15.10;7.68;;;;;;;25.93;59.01;100204.88;5032188;28;20028;-80
2022/07/25 01:57:07;;;;;;;16.70;8.27;;;;;;;25.48;59.38;100145.41;5031003;28;20051;-80
2022/07/25 01:59:36;;;;;;;11.93;8.05;;;;;;;25.83;59.17;100196.34;5031804;28;20025;-80
2022/07/25 02:02:02;;;;;;;13.35;8.20;;;;;;;26.02;59.43;100199.31;5032210;28;20147;-79
2022/07/25 02:04:27;;;;;;;13.60;7.50;;;;;;;26.18;59.38;100185.59;5032239;28;20061;-80
2022/07/25 02:06:53;;;;;;;18.08;9.38;;;;;;;25.90;61.31;100139.72;5032001;28;20446;-79
2022/07/25 02:09:18;;;;;;;18.48;10.38;;;;;;;25.98;63.91;100161.50;5032135;28;20033;-78
2022/07/25 02:11:44;;;;;;;23.77;10.75;;;;;;;25.92;65.61;100137.00;5031391;28;20121;-78
2022/07/25 02:14:09;;;;;;;16.60;11.20;;;;;;;25.81;67.00;100143.50;5031989;28;20408;-84
2022/07/25 02:16:35;;;;;;;15.90;11.23;;;;;;;25.83;68.51;100176.06;5031769;28;20040;-77
2022/07/25 02:19:00;;;;;;;17.05;11.40;;;;;;;25.79;69.35;100160.34;5014158;28;20547;-77
2022/07/25 02:21:25;;;;;;;15.50;12.10;;;;;;;25.96;69.80;100168.59;5031590;28;20510;-77
2022/07/25 02:23:51;;;;;;;15.40;11.93;;;;;;;25.82;69.34;100147.00;5031942;28;20060;-77
2022/07/25 02:26:17;;;;;;;13.75;12.38;;;;;;;25.71;70.36;100157.06;5031241;28;20104;-77
2022/07/25 02:28:42;;;;;;;14.40;12.63;;;;;;;25.72;71.44;100175.53;5013476;28;20113;-76
2022/07/25 02:31:08;;;;;;;13.73;12.25;;;;;;;25.64;71.81;100157.25;5031660;28;20033;-76
2022/07/25 02:33:34;;;;;;;15.75;12.15;;;;;;;25.42;73.62;100140.31;5031338;28;20025;-77
2022/07/25 02:35:59;;;;;;;15.27;13.27;;;;;;;25.26;75.14;100155.72;5031670;28;20025;-76
2022/07/25 02:38:25;;;;;;;15.07;12.43;;;;;;;24.76;76.19;100130.72;5031578;28;20021;-78
2022/07/25 02:40:51;;;;;;;16.33;12.55;;;;;;;25.07;76.43;100158.03;5031464;28;20037;-82
2022/07/25 02:43:18;;;;;;;15.70;13.32;;;;;;;25.14;76.75;100156.94;5031269;28;20040;-80
2022/07/25 02:45:44;;;;;;;19.50;13.07;;;;;;;25.19;75.90;100158.53;5031266;28;20072;-80
2022/07/25 02:48:10;;;;;;;17.90;13.63;;;;;;;25.10;76.09;100136.81;5031275;28;20029;-80
2022/07/25 02:50:36;;;;;;;15.10;13.60;;;;;;;25.32;75.96;100145.84;5030826;28;20030;-80
2022/07/25 02:53:03;;;;;;;13.52;12.05;;;;;;;25.61;73.78;100170.56;5031181;28;20037;-80
2022/07/25 02:55:30;;;;;;;15.30;12.38;;;;;;;25.82;72.50;100169.06;5030938;28;20025;-79
2022/07/25 02:57:56;;;;;;;13.70;12.30;;;;;;;25.75;71.96;100179.88;5030974;28;20037;-79
2022/07/25 03:00:21;;;;;;;14.95;12.77;;;;;;;25.47;71.63;100143.69;5013479;28;20022;-80
2022/07/25 03:02:47;;;;;;;15.85;12.68;;;;;;;25.76;73.74;100181.59;5013041;28;20132;-78
2022/07/25 03:05:13;;;;;;;15.05;12.52;;;;;;;25.74;74.15;100180.78;5030792;28;20025;-79
2022/07/25 03:07:41;;;;;;;15.00;12.95;;;;;;;25.35;76.12;100135.19;5013457;28;20519;-80
2022/07/25 03:10:08;;;;;;;19.30;13.48;;;;;;;25.45;76.65;100166.66;5030266;28;20472;-79
2022/07/25 03:12:34;;;;;;;20.73;13.75;;;;;;;25.29;75.94;100132.72;5030802;28;20021;-79
2022/07/25 03:15:00;;;;;;;21.33;13.80;;;;;;;25.65;75.99;100185.41;5030627;28;20025;-82
2022/07/25 03:17:27;;;;;;;20.83;13.45;;;;;;;25.80;75.46;100181.44;5030713;28;20057;-83
2022/07/25 03:19:53;;;;;;;19.52;13.82;;;;;;;25.90;75.30;100174.09;5030278;28;20052;-82
2022/07/25 03:22:19;;;;;;;19.48;13.38;;;;;;;25.86;74.89;100183.03;5030632;28;20053;-81
2022/07/25 03:24:45;;;;;;;17.17;13.38;;;;;;;25.80;74.82;100173.50;5030226;28;20112;-80
2022/07/25 03:27:10;;;;;;;20.33;12.90;;;;;;;25.82;74.61;100184.03;5012766;28;20132;-80
2022/07/25 03:29:36;;;;;;;15.95;12.77;;;;;;;25.78;74.50;100163.91;5012747;28;20091;-81
2022/07/25 03:32:02;;;;;;;14.18;11.65;;;;;;;25.55;73.20;100128.47;5030349;28;20079;-82
2022/07/25 03:34:27;;;;;;;16.42;12.52;;;;;;;25.92;72.42;100188.16;5012558;28;20025;-81
2022/07/25 03:36:53;;;;;;;18.40;12.18;;;;;;;26.00;71.30;100175.53;5012762;28;20112;-81
2022/07/25 03:39:19;;;;;;;21.52;12.93;;;;;;;26.09;73.05;100189.41;5030074;28;20021;-81
2022/07/25 03:41:45;;;;;;;20.92;12.70;;;;;;;26.03;73.56;100192.22;5030303;28;20491;-81
2022/07/25 03:44:11;;;;;;;15.40;12.15;;;;;;;25.85;72.31;100165.44;5030554;28;20083;-81
2022/07/25 03:46:36;;;;;;;20.20;12.27;;;;;;;26.03;71.68;100194.88;4995080;28;20048;-81
2022/07/25 03:49:02;;;;;;;21.13;15.38;;;;;;;25.94;72.77;100206.59;5030242;28;20033;-81
2022/07/25 03:51:28;;;;;;;33.33;21.23;;;;;;;25.75;73.91;100195.72;5029807;28;20107;-80
2022/07/25 03:54:02;;;;;;;26.15;17.80;;;;;;;25.18;76.51;100192.94;5029679;28;20022;-80
2022/07/25 03:56:28;;;;;;;21.48;17.00;;;;;;;25.21;77.17;100211.34;5012132;28;20021;-80
2022/07/25 03:58:54;;;;;;;21.52;18.17;;;;;;;25.08;77.64;100210.81;5029932;28;20468;-79
2022/07/25 04:01:19;;;;;;;32.28;21.55;;;;;;;25.27;76.63;100216.47;5011734;28;20566;-78
2022/07/25 04:03:45;;;;;;;30.73;21.17;;;;;;;25.46;76.33;100202.72;5012465;28;20041;-78
2022/07/25 04:06:10;;;;;;;28.25;18.27;;;;;;;25.46;75.49;100158.69;5007513;28;20049;-77
2022/07/25 04:08:36;;;;;;;29.42;17.65;;;;;;;25.91;74.91;100207.56;5007314;28;20037;-77
2022/07/25 04:11:01;;;;;;;22.17;16.70;;;;;;;25.86;74.65;100182.16;5007623;28;20072;-77
2022/07/25 04:13:27;;;;;;;27.02;17.33;;;;;;;25.78;73.70;100148.03;5007473;28;20038;-77
2022/07/25 04:15:52;;;;;;;19.48;14.82;;;;;;;26.08;74.08;100199.13;5007529;28;20125;-77
2022/07/25 04:18:18;;;;;;;22.50;15.15;;;;;;;26.04;73.48;100205.38;5007748;28;20030;-77
2022/07/25 04:20:43;;;;;;;14.52;12.65;;;;;;;25.15;71.82;100064.44;5010585;28;20077;-76
2022/07/25 04:23:09;;;;;;;18.02;12.32;;;;;;;26.10;70.50;100202.59;5011196;28;20046;-77
2022/07/25 04:25:34;;;;;;;18.48;11.85;;;;;;;26.04;68.85;100197.44;5011410;28;20108;-77
2022/07/25 04:28:00;;;;;;;15.10;12.25;;;;;;;26.06;68.55;100206.25;5011246;28;20041;-76
2022/07/25 04:30:25;;;;;;;21.23;12.55;;;;;;;25.76;68.75;100152.53;5011013;28;20125;-78
2022/07/25 04:32:51;;;;;;;15.98;12.63;;;;;;;26.07;68.71;100186.81;5011391;28;20125;-77
2022/07/25 04:35:17;;;;;;;17.40;12.30;;;;;;;26.21;68.39;100196.09;5011377;28;20033;-77
2022/07/25 04:37:42;;;;;;;15.93;14.02;;;;;;;26.30;67.78;100190.50;5026898;28;20052;-77
2022/07/25 04:40:09;;;;;;;24.25;15.50;;;;;;;26.31;67.81;100190.44;5033555;28;20021;-77
2022/07/25 04:42:35;;;;;;;22.77;16.15;;;;;;;26.27;66.95;100188.81;5015919;28;20064;-78
2022/07/25 04:45:01;;;;;;;17.92;14.45;;;;;;;26.45;67.30;100197.91;5033235;28;20067;-77
2022/07/25 04:47:26;;;;;;;19.48;14.30;;;;;;;26.50;66.44;100181.03;5033421;28;20037;-78
2022/07/25 04:49:52;;;;;;;21.45;13.85;;;;;;;26.58;66.45;100187.78;5033286;28;20029;-78
2022/07/25 04:52:17;;;;;;;17.60;13.60;;;;;;;26.61;66.33;100192.13;5033066;28;20029;-78
2022/07/25 04:54:43;;;;;;;14.13;12.63;;;;;;;26.43;66.14;100185.66;5015758;28;20527;-77
2022/07/25 04:57:08;;;;;;;15.65;13.00;;;;;;;26.48;66.41;100194.28;5033200;28;20044;-78
2022/07/25 04:59:34;;;;;;;14.18;11.73;;;;;;;26.51;65.99;100207.44;5033382;28;20036;-79
2022/07/25 05:02:00;;;;;;;15.93;11.93;;;;;;;26.59;65.36;100210.72;5032933;28;20092;-79
2022/07/25 05:04:26;;;;;;;14.40;12.27;;;;;;;26.51;64.83;100188.91;5033018;28;20022;-78
2022/07/25 05:06:51;;;;;;;14.50;12.30;;;;;;;26.69;64.89;100215.69;5032859;28;20105;-78
2022/07/25 05:09:16;;;;;;;13.27;11.32;;;;;;;26.71;64.99;100208.56;5033063;28;20506;-77
2022/07/25 05:11:42;;;;;;;16.27;12.05;;;;;;;26.64;64.61;100195.53;5033284;28;20032;-78
2022/07/25 05:14:07;;;;;;;12.38;11.02;;;;;;;26.86;63.88;100220.44;5032928;28;20084;-77
2022/07/25 05:16:33;;;;;;;24.10;13.10;;;;;;;26.64;65.13;100178.75;5033107;28;20029;-79
2022/07/25 05:18:58;;;;;;;19.27;11.85;;;;;;;26.98;62.00;100221.78;5029068;28;20017;-79
2022/07/25 05:21:24;;;;;;;13.05;11.70;;;;;;;27.06;62.06;100219.72;5030498;28;20458;-79
2022/07/25 05:23:49;;;;;;;13.82;11.38;;;;;;;26.68;63.01;100209.53;5032684;28;20119;-80
2022/07/25 05:26:15;;;;;;;22.92;11.60;;;;;;;26.84;63.22;100217.81;5031685;28;20056;-81
2022/07/25 05:28:41;;;;;;;16.17;11.70;;;;;;;26.95;64.51;100223.63;5023042;28;20038;-79
2022/07/25 05:31:06;;;;;;;16.83;11.85;;;;;;;26.54;64.51;100190.59;5024949;28;20064;-82
2022/07/25 05:33:32;;;;;;;18.50;12.25;;;;;;;26.05;64.71;100132.22;5031775;28;20088;-82
2022/07/25 05:35:58;;;;;;;18.23;12.52;;;;;;;26.62;65.12;100222.97;4997897;28;20092;-81
2022/07/25 05:38:23;;;;;;;15.70;12.07;;;;;;;26.57;65.06;100195.81;5032239;28;20021;-85
2022/07/25 05:40:51;;;;;;;16.90;12.30;;;;;;;26.89;64.23;100215.91;5014610;28;20550;-85
2022/07/25 05:43:17;;;;;;;16.33;11.70;;;;;;;27.11;65.08;100220.44;5011515;28;20030;-84
2022/07/25 05:45:43;;;;;;;15.23;11.65;;;;;;;26.90;65.30;100195.56;5031977;28;20033;-83
2022/07/25 05:48:08;;;;;;;12.90;11.50;;;;;;;26.73;64.32;100156.38;5031517;28;20090;-83
2022/07/25 05:50:36;;;;;;;14.63;12.77;;;;;;;27.15;64.68;100207.94;5031409;28;20040;-81
2022/07/25 05:53:01;;;;;;;12.60;11.25;;;;;;;27.21;63.48;100213.00;5032152;28;20064;-81
2022/07/25 05:55:29;;;;;;;14.63;11.45;;;;;;;26.29;65.44;100080.25;5031748;28;20021;-86
2022/07/25 05:57:55;;;;;;;13.38;11.85;;;;;;;27.10;61.99;100202.78;5031346;28;20070;-80
2022/07/25 06:00:21;;;;;;;15.27;11.70;;;;;;;26.92;63.42;100205.19;5031728;28;20025;-82
2022/07/25 06:02:46;;;;;;;13.73;11.13;;;;;;;26.91;61.67;100199.94;5013968;28;20026;-86
2022/07/25 06:05:12;;;;;;;12.70;11.35;;;;;;;26.83;62.98;100171.09;5030257;28;20052;-83
2022/07/25 06:07:38;;;;;;;14.95;11.27;;;;;;;26.96;63.14;100176.81;5013444;28;20103;-80
2022/07/25 06:10:04;;;;;;;15.00;11.30;;;;;;;27.14;63.92;100169.97;5007351;28;20037;-79
2022/07/25 06:12:29;;;;;;;14.43;10.45;;;;;;;27.29;62.32;100180.00;5030817;28;20042;-79
2022/07/25 06:14:54;;;;;;;15.48;10.98;;;;;;;27.35;58.41;100199.25;5031603;28;20035;-77
2022/07/25 06:17:20;;;;;;;11.38;10.27;;;;;;;27.37;55.75;100181.50;5014016;28;20030;-79
2022/07/25 06:19:46;;;;;;;12.23;10.52;;;;;;;27.64;56.13;100213.22;5030742;28;20104;-76
2022/07/25 06:22:12;;;;;;;12.18;10.98;;;;;;;27.72;55.24;100211.16;5031297;28;20057;-79
2022/07/25 06:24:38;;;;;;;14.95;10.82;;;;;;;27.81;57.59;100205.47;4979893;28;20045;-74
2022/07/25 06:27:03;;;;;;;12.27;11.05;;;;;;;27.69;53.92;100196.22;5030899;28;20049;-76
2022/07/25 06:29:29;;;;;;;12.57;10.05;;;;;;;27.49;54.73;100175.78;5030664;28;20045;-77
2022/07/25 06:31:54;;;;;;;14.60;11.00;;;;;;;27.66;55.43;100198.97;5031079;28;20025;-78
2022/07/25 06:34:20;;;;;;;15.02;10.82;;;;;;;27.77;54.76;100202.06;5026906;28;20036;-78
2022/07/25 06:36:45;;;;;;;12.52;11.20;;;;;;;27.78;55.49;100181.75;5017556;28;20061;-86
2022/07/25 06:39:11;;;;;;;12.35;11.15;;;;;;;27.91;55.62;100190.94;4970490;28;20050;-84
2022/07/25 06:41:36;;;;;;;12.25;10.95;;;;;;;27.84;55.73;100189.44;4954385;28;20038;-88
2022/07/25 06:44:02;;;;;;;15.68;10.80;;;;;;;27.92;53.87;100174.06;4962503;28;20046;-83
2022/07/25 06:46:30;;;;;;;12.23;10.98;;;;;;;28.23;52.35;100187.94;4983415;28;20031;-88
2022/07/25 06:48:56;;;;;;;16.63;10.77;;;;;;;28.36;53.08;100190.94;4989843;28;20140;-86
2022/07/25 06:51:22;;;;;;;13.23;11.25;;;;;;;28.11;53.65;100128.25;4970413;28;20050;-86
2022/07/25 06:53:48;;;;;;;12.32;10.05;;;;;;;28.52;52.57;100184.03;4970361;28;20069;-88
2022/07/25 06:56:13;;;;;;;11.23;10.07;;;;;;;28.60;52.19;100180.22;4970577;28;20073;-86
2022/07/25 06:58:39;;;;;;;12.02;10.80;;;;;;;28.45;51.99;100149.84;4970097;28;20043;-88
2022/07/25 07:01:04;;;;;;;12.05;10.35;;;;;;;28.41;50.92;100143.81;4970217;28;20052;-87
2022/07/25 07:03:31;;;;;;;11.90;10.65;;;;;;;28.29;50.56;100126.63;4970190;28;20046;-84
2022/07/25 07:05:56;;;;;;;11.77;10.65;;;;;;;28.77;50.55;100188.34;4970245;28;20045;-84
2022/07/25 07:08:22;;;;;;;13.00;10.23;;;;;;;28.60;54.35;100153.66;4970465;28;20038;-85
2022/07/25 07:10:48;;;;;;;12.60;9.80;;;;;;;28.89;50.23;100171.84;4965524;28;20027;-84
2022/07/25 07:13:17;;;;;;;15.38;9.60;;;;;;;29.02;51.13;100171.31;4970285;28;20043;-87
2022/07/25 07:15:47;;;;;;;13.88;9.70;;;;;;;29.25;50.07;100212.81;4970314;28;20055;-84
2022/07/25 07:18:12;;;;;;;21.23;10.32;;;;;;;29.05;51.50;100165.88;4969978;28;20035;-87
2022/07/25 07:20:38;;;;;;;19.45;11.23;;;;;;;28.96;51.03;100166.28;4949961;28;20042;-85
2022/07/25 07:23:03;;;;;;;19.75;11.05;;;;;;;29.30;51.49;100216.16;4989248;28;20131;-86
2022/07/25 07:25:29;;;;;;;16.63;11.32;;;;;;;29.18;52.85;100195.41;4993517;28;20029;-87
2022/07/25 07:27:55;;;;;;;14.45;11.00;;;;;;;29.25;51.32;100206.63;4988813;28;20447;-82
2022/07/25 07:30:20;;;;;;;14.95;9.68;;;;;;;29.19;51.43;100178.53;5028014;28;20029;-87
2022/07/25 07:32:46;;;;;;;24.67;10.98;;;;;;;29.26;52.04;100198.59;4959767;28;20213;-85
2022/07/25 07:35:15;;;;;;;13.48;8.77;;;;;;;29.01;50.80;100158.97;4950321;29;20031;-88
2022/07/25 07:37:40;;;;;;;11.82;8.50;;;;;;;28.97;49.71;100150.25;4948033;29;20082;-86
2022/07/25 07:40:06;;;;;;;15.43;8.68;;;;;;;29.39;49.74;100196.28;4934089;29;20043;-85
2022/07/25 07:42:44;;;;;;;15.82;9.70;;;;;;;29.59;50.88;100213.09;4934021;29;20043;-86
2022/07/25 07:45:20;;;;;;;11.30;7.35;;;;;;;29.78;48.34;100210.44;4949923;29;20122;-86
2022/07/25 07:47:48;;;;;;;12.95;7.55;;;;;;;29.83;49.23;100209.28;4950266;29;20588;-85
2022/07/25 07:50:15;;;;;;;10.98;7.80;;;;;;;29.62;49.25;100154.44;4950186;29;20074;-85
2022/07/25 07:52:41;;;;;;;11.70;7.82;;;;;;;29.91;50.42;100211.63;4933886;29;20039;-85
2022/07/25 07:57:52;;;;;;;11.50;7.70;;;;;;;30.13;49.19;100210.56;4950449;29;20053;-88
2022/07/25 08:00:19;;;;;;;11.18;7.53;;;;;;;30.23;47.35;100203.84;4951536;28;20031;-86
2022/07/25 08:02:48;;;;;;;14.85;7.80;;;;;;;30.35;47.72;100213.03;4970769;28;20039;-85
2022/07/25 08:05:32;;;;;;;10.35;8.60;;;;;;;30.19;48.31;100186.28;4988616;28;20030;-85
2022/07/25 08:07:58;;;;;;;15.70;7.75;;;;;;;30.37;46.02;100211.16;4988540;28;20049;-85
2022/07/25 08:10:29;;;;;;;11.30;8.13;;;;;;;30.43;49.15;100213.53;4988640;28;20065;-85
2022/07/25 08:12:55;;;;;;;16.23;8.40;;;;;;;30.55;47.08;100213.88;4988460;28;20077;-85
2022/07/25 08:15:21;;;;;;;17.67;8.00;;;;;;;30.68;49.26;100216.75;4988256;28;20070;-86
2022/07/25 08:17:49;;;;;;;10.30;7.43;;;;;;;30.51;46.93;100186.53;4988638;28;20660;-86
2022/07/25 08:20:15;;;;;;;11.48;7.38;;;;;;;30.58;45.39;100211.91;4988168;28;20074;-87
2022/07/25 08:22:46;;;;;;;9.80;7.97;;;;;;;30.76;44.45;100218.09;4988038;28;20054;-88
2022/07/25 08:25:20;;;;;;;11.68;7.95;;;;;;;30.25;45.96;100154.03;4985409;28;20030;-86
2022/07/25 08:27:47;;;;;;;14.60;8.32;;;;;;;30.38;46.35;100196.03;4987865;28;20050;-86
2022/07/25 08:30:14;;;;;;;9.32;6.80;;;;;;;30.52;46.67;100225.53;4969326;28;20030;-86
2022/07/25 08:32:58;;;;;;;10.73;7.43;;;;;;;30.60;46.30;100223.34;4988071;28;20065;-87
2022/07/25 08:35:26;;;;;;;9.38;7.78;;;;;;;30.73;46.54;100228.91;4987148;28;20030;-87
2022/07/25 08:37:53;;;;;;;9.20;7.60;;;;;;;30.89;47.19;100220.13;4988560;28;20031;-86
2022/07/25 08:40:20;;;;;;;20.73;8.60;;;;;;;30.96;47.33;100218.88;4988318;28;20138;-89
2022/07/25 08:42:47;;;;;;;9.00;7.82;;;;;;;30.95;47.30;100222.47;4969377;28;20100;-86
2022/07/25 08:45:18;;;;;;;12.40;7.60;;;;;;;30.61;46.29;100179.78;4971810;28;20030;-86
2022/07/25 08:47:45;;;;;;;14.02;7.78;;;;;;;30.73;46.96;100204.94;4971892;28;20109;-86
2022/07/25 08:50:13;;;;;;;11.02;7.40;;;;;;;30.86;46.53;100220.28;4988087;28;20076;-88
2022/07/25 08:52:38;;;;;;;12.27;7.53;;;;;;;30.91;47.76;100224.44;5008886;28;20530;-90
2022/07/25 08:55:09;;;;;;;13.77;6.80;;;;;;;31.07;44.42;100229.84;5029890;28;20034;-78
2022/07/25 08:57:37;;;;;;;12.50;6.47;;;;;;;31.09;44.37;100214.66;5030066;28;20040;-86
2022/07/25 09:00:06;;;;;;;11.88;7.03;;;;;;;31.13;44.37;100199.34;5030210;28;20071;-88
2022/07/25 09:02:31;;;;;;;8.40;6.75;;;;;;;31.30;45.29;100233.09;5030124;28;20131;-77
2022/07/25 09:04:58;;;;;;;10.40;6.45;;;;;;;31.29;46.72;100228.69;5020735;28;20128;-76
2022/07/25 09:07:38;;;;;;;10.75;6.43;;;;;;;31.28;45.42;100232.34;5020887;28;20935;-77
2022/07/25 09:10:18;;;;;;;13.80;6.97;;;;;;;31.20;44.20;100227.38;5024379;28;20112;-76
2022/07/25 09:12:59;;;;;;;8.05;6.20;;;;;;;31.21;45.61;100226.44;4981324;28;20111;-76
2022/07/25 09:15:30;;;;;;;11.40;5.97;;;;;;;31.12;44.70;100219.81;5021811;28;20504;-75
2022/07/25 09:18:01;;;;;;;9.40;6.03;;;;;;;31.12;48.81;100225.13;5023084;28;20045;-76
2022/07/25 09:20:48;;;;;;;10.88;6.85;;;;;;;31.16;46.30;100201.84;5022375;28;20080;-75
2022/07/25 09:23:28;;;;;;;11.98;6.13;;;;;;;31.38;45.32;100206.00;5022836;28;20530;-76
2022/07/25 09:26:11;;;;;;;8.52;6.13;;;;;;;31.59;45.50;100217.31;5026403;28;20415;-77
2022/07/25 09:28:47;;;;;;;10.50;5.90;;;;;;;31.68;43.25;100210.63;5003429;28;20030;-84
2022/07/25 09:31:14;;;;;;;8.48;5.88;;;;;;;31.50;43.38;100188.47;5013484;28;20033;-85
2022/07/25 09:33:55;;;;;;;9.55;6.13;;;;;;;31.97;41.98;100210.81;5021244;28;20033;-76
2022/07/25 09:36:21;;;;;;;12.13;6.72;;;;;;;32.24;42.59;100209.25;5013894;28;20520;-76
2022/07/25 09:38:59;;;;;;;8.35;6.20;;;;;;;32.31;40.93;100182.19;5032710;28;20073;-74
2022/07/25 09:41:39;;;;;;;13.60;7.82;;;;;;;32.56;40.92;100195.81;5032526;28;20018;-75
2022/07/25 09:44:31;;;;;;;21.20;6.88;;;;;;;32.64;39.63;100198.03;5023004;28;20041;-73
2022/07/25 09:47:00;;;;;;;13.50;7.45;;;;;;;32.56;39.93;100194.94;5023384;28;20022;-77
2022/07/25 09:49:39;;;;;;;12.70;7.10;;;;;;;32.76;42.47;100199.13;5022949;28;20480;-75
2022/07/25 09:52:05;;;;;;;8.43;6.45;;;;;;;32.91;42.26;100202.66;5022946;28;20644;-77
2022/07/25 09:54:32;;;;;;;8.60;6.65;;;;;;;32.40;38.90;100122.84;5021466;28;20064;-79
2022/07/25 09:56:57;;;;;;;9.35;7.05;;;;;;;32.89;41.75;100183.22;5028678;28;20044;-79
2022/07/25 09:59:23;;;;;;;7.45;6.68;;;;;;;32.75;39.95;100146.63;5032482;28;20399;-81
2022/07/25 10:01:59;;;;;;;8.15;6.63;;;;;;;32.80;38.85;100147.22;5010413;28;20041;-81
2022/07/25 10:04:47;;;;;;;8.75;6.97;;;;;;;33.33;38.12;100186.78;5004931;28;20033;-76
2022/07/25 10:07:15;;;;;;;10.35;7.35;;;;;;;33.60;38.14;100186.84;5023490;28;20041;-76
2022/07/25 10:09:44;;;;;;;8.10;7.30;;;;;;;33.71;38.50;100168.25;5005590;28;20450;-76
2022/07/25 10:12:10;;;;;;;;;;;;;;;33.90;35.98;100175.13;4990419;28;20097;-76
2022/07/25 10:14:37;;;;;;;7.88;7.07;;;;;;;34.05;36.71;100170.56;4989832;28;19921;-76
2022/07/25 10:17:03;;;;;;;11.55;7.28;;;;;;;33.99;36.16;100134.31;4989762;28;20041;-75
2022/07/25 10:19:55;;;;;;;8.82;7.43;;;;;;;34.15;38.08;100155.59;4992926;28;20497;-76
2022/07/25 10:22:21;;;;;;;8.95;6.90;;;;;;;34.09;36.27;100131.03;4939492;29;20044;-81
2022/07/25 10:24:47;;;;;;;12.10;7.85;;;;;;;34.16;36.35;100145.75;4943599;29;20052;-85
2022/07/25 10:27:21;;;;;;;12.23;8.25;;;;;;;34.28;37.19;100147.59;4932261;29;20039;-87
2022/07/25 10:29:52;;;;;;;9.85;7.70;;;;;;;33.92;35.88;100094.66;4932083;29;20034;-85
2022/07/25 10:32:18;;;;;;;8.98;7.82;;;;;;;34.45;35.48;100142.94;4930451;29;20043;-76
2022/07/25 10:34:52;;;;;;;17.15;8.77;;;;;;;34.50;35.90;100132.75;4932095;29;20027;-77
2022/07/25 10:37:19;;;;;;;10.60;6.78;;;;;;;34.58;34.05;100133.09;4931999;29;20510;-76
2022/07/25 10:39:46;;;;;;;9.52;7.38;;;;;;;34.70;35.03;100122.47;4931949;29;20122;-76
2022/07/25 10:42:19;;;;;;;12.13;8.90;;;;;;;34.54;36.17;100144.13;4930743;29;20384;-76
2022/07/25 10:44:47;;;;;;;8.18;7.38;;;;;;;34.32;35.93;100149.09;4942107;29;20039;-76
2022/07/25 10:47:14;;;;;;;10.45;7.78;;;;;;;34.11;37.52;100134.47;4948464;29;20466;-76
2022/07/25 10:49:42;;;;;;;9.25;7.45;;;;;;;33.96;37.66;100131.88;4950450;29;20053;-76
2022/07/25 10:52:16;;;;;;;13.13;7.43;;;;;;;34.39;35.63;100132.63;4950504;29;20652;-78
2022/07/25 10:54:54;;;;;;;9.27;7.40;;;;;;;34.43;35.58;100116.25;4950848;29;20573;-77
2022/07/25 10:57:21;;;;;;;9.10;7.57;;;;;;;33.74;37.29;100124.34;4941384;29;20031;-78
2022/07/25 10:59:46;;;;;;;7.78;6.88;;;;;;;33.56;35.75;100064.88;5002850;28;20046;-77
2022/07/25 11:02:15;;;;;;;8.20;7.40;;;;;;;33.91;35.96;100123.28;4985216;28;20030;-77
2022/07/25 11:05:00;;;;;;;8.80;7.57;;;;;;;33.54;37.34;100107.78;5025790;28;20033;-78
2022/07/25 11:07:27;;;;;;;9.18;7.13;;;;;;;33.49;35.66;100119.75;5029103;28;20551;-76
2022/07/25 11:09:58;;;;;;;8.55;7.28;;;;;;;33.57;37.91;100120.09;5030024;28;20399;-77
2022/07/25 11:12:23;;;;;;;8.07;7.05;;;;;;;33.42;36.61;100099.69;5030223;28;20018;-76
2022/07/25 11:14:49;;;;;;;11.02;7.20;;;;;;;33.62;36.86;100103.75;5030124;28;20036;-78
2022/07/25 11:17:21;;;;;;;7.90;6.75;;;;;;;33.68;37.12;100112.25;5030400;28;20468;-75
2022/07/25 11:19:58;;;;;;;20.80;8.00;;;;;;;34.06;38.14;100105.31;5029773;28;20033;-77